sensor_id;sensor_type;location;lat;lon;timestamp;P1;durP1;ratioP1;P2;durP2;ratioP2
5363;SDS011;2705;41.410;2.160;2023-02-01T00:01:37;16.07;;;8.47;;
5363;SDS011;2705;41.410;2.160;2023-02-01T00:04:06;19.87;;;8.30;;
5363;SDS011;2705;41.410;2.160;2023-02-01T00:06:36;14.07;;;8.50;;
5363;SDS011;2705;41.410;2.160;2023-02-01T00:09:05;13.97;;;7.63;;
5363;SDS011;2705;41.410;2.160;2023-02-01T00:11:35;14.83;;;9.20;;
5363;SDS011;2705;41.410;2.160;2023-02-01T00:14:04;13.50;;;9.30;;
5363;SDS011;2705;41.410;2.160;2023-02-01T00:16:35;15.50;;;8.73;;
5363;SDS011;2705;41.410;2.160;2023-02-01T00:19:06;22.50;;;9.33;;
5363;SDS011;2705;41.410;2.160;2023-02-01T00:21:36;14.97;;;9.40;;
5363;SDS011;2705;41.410;2.160;2023-02-01T00:24:06;13.77;;;9.20;;
5363;SDS011;2705;41.410;2.160;2023-02-01T00:26:36;15.47;;;9.90;;
5363;SDS011;2705;41.410;2.160;2023-02-01T00:29:07;18.40;;;10.20;;
5363;SDS011;2705;41.410;2.160;2023-02-01T00:31:36;16.70;;;9.90;;
5363;SDS011;2705;41.410;2.160;2023-02-01T00:34:09;13.67;;;9.10;;
5363;SDS011;2705;41.410;2.160;2023-02-01T00:36:38;26.70;;;10.40;;
5363;SDS011;2705;41.410;2.160;2023-02-01T00:39:07;20.17;;;10.13;;
5363;SDS011;2705;41.410;2.160;2023-02-01T00:41:37;23.17;;;10.00;;
5363;SDS011;2705;41.410;2.160;2023-02-01T00:44:07;17.77;;;10.40;;
5363;SDS011;2705;41.410;2.160;2023-02-01T00:46:36;18.13;;;9.50;;
5363;SDS011;2705;41.410;2.160;2023-02-01T00:49:05;15.73;;;9.80;;
5363;SDS011;2705;41.410;2.160;2023-02-01T00:51:37;17.77;;;9.03;;
5363;SDS011;2705;41.410;2.160;2023-02-01T00:54:06;19.33;;;10.40;;
5363;SDS011;2705;41.410;2.160;2023-02-01T00:56:36;19.47;;;10.40;;
5363;SDS011;2705;41.410;2.160;2023-02-01T00:59:05;28.63;;;10.10;;
5363;SDS011;2705;41.410;2.160;2023-02-01T01:01:34;18.17;;;9.23;;
5363;SDS011;2705;41.410;2.160;2023-02-01T01:04:04;17.80;;;9.90;;
5363;SDS011;2705;41.410;2.160;2023-02-01T01:06:33;17.57;;;9.60;;
5363;SDS011;2705;41.410;2.160;2023-02-01T01:09:05;28.30;;;9.90;;
5363;SDS011;2705;41.410;2.160;2023-02-01T01:11:35;15.70;;;9.57;;
5363;SDS011;2705;41.410;2.160;2023-02-01T01:14:06;20.13;;;9.60;;
5363;SDS011;2705;41.410;2.160;2023-02-01T01:16:35;18.13;;;8.47;;
5363;SDS011;2705;41.410;2.160;2023-02-01T01:19:05;16.60;;;9.30;;
5363;SDS011;2705;41.410;2.160;2023-02-01T01:21:34;16.83;;;8.87;;
5363;SDS011;2705;41.410;2.160;2023-02-01T01:24:05;17.60;;;9.60;;
5363;SDS011;2705;41.410;2.160;2023-02-01T01:26:34;16.93;;;9.30;;
5363;SDS011;2705;41.410;2.160;2023-02-01T01:29:04;15.30;;;9.20;;
5363;SDS011;2705;41.410;2.160;2023-02-01T01:31:33;12.80;;;8.60;;
5363;SDS011;2705;41.410;2.160;2023-02-01T01:34:03;12.90;;;7.97;;
5363;SDS011;2705;41.410;2.160;2023-02-01T01:36:32;13.03;;;8.57;;
5363;SDS011;2705;41.410;2.160;2023-02-01T01:39:01;16.00;;;8.17;;
5363;SDS011;2705;41.410;2.160;2023-02-01T01:41:33;11.90;;;8.20;;
5363;SDS011;2705;41.410;2.160;2023-02-01T01:47:06;14.10;;;7.40;;
5363;SDS011;2705;41.410;2.160;2023-02-01T01:49:36;10.27;;;7.10;;
5363;SDS011;2705;41.410;2.160;2023-02-01T01:52:06;11.50;;;8.00;;
5363;SDS011;2705;41.410;2.160;2023-02-01T01:54:37;12.13;;;8.47;;
5363;SDS011;2705;41.410;2.160;2023-02-01T01:57:10;14.33;;;8.70;;
5363;SDS011;2705;41.410;2.160;2023-02-01T01:59:41;11.97;;;7.60;;
5363;SDS011;2705;41.410;2.160;2023-02-01T02:02:12;14.80;;;8.30;;
5363;SDS011;2705;41.410;2.160;2023-02-01T02:04:41;20.57;;;7.87;;
5363;SDS011;2705;41.410;2.160;2023-02-01T02:07:11;11.43;;;7.40;;
5363;SDS011;2705;41.410;2.160;2023-02-01T02:09:43;11.00;;;7.40;;
5363;SDS011;2705;41.410;2.160;2023-02-01T02:12:27;10.40;;;7.03;;
5363;SDS011;2705;41.410;2.160;2023-02-01T02:14:57;13.13;;;8.10;;
5363;SDS011;2705;41.410;2.160;2023-02-01T02:17:29;18.30;;;7.77;;
5363;SDS011;2705;41.410;2.160;2023-02-01T02:20:11;20.83;;;10.43;;
5363;SDS011;2705;41.410;2.160;2023-02-01T02:22:57;11.53;;;7.47;;
5363;SDS011;2705;41.410;2.160;2023-02-01T02:25:44;13.80;;;8.10;;
5363;SDS011;2705;41.410;2.160;2023-02-01T02:33:53;23.40;;;8.80;;
5363;SDS011;2705;41.410;2.160;2023-02-01T02:36:30;15.83;;;9.53;;
5363;SDS011;2705;41.410;2.160;2023-02-01T02:39:03;14.23;;;8.80;;
5363;SDS011;2705;41.410;2.160;2023-02-01T02:41:38;13.83;;;9.20;;
5363;SDS011;2705;41.410;2.160;2023-02-01T02:44:32;11.50;;;8.17;;
5363;SDS011;2705;41.410;2.160;2023-02-01T02:47:22;11.63;;;7.17;;
5363;SDS011;2705;41.410;2.160;2023-02-01T02:49:56;11.80;;;7.30;;
5363;SDS011;2705;41.410;2.160;2023-02-01T02:52:47;14.33;;;7.80;;
5363;SDS011;2705;41.410;2.160;2023-02-01T02:55:37;11.67;;;7.73;;
5363;SDS011;2705;41.410;2.160;2023-02-01T02:58:07;14.70;;;8.80;;
5363;SDS011;2705;41.410;2.160;2023-02-01T03:00:55;15.70;;;10.10;;
5363;SDS011;2705;41.410;2.160;2023-02-01T03:03:43;15.93;;;9.33;;
5363;SDS011;2705;41.410;2.160;2023-02-01T03:06:32;20.80;;;8.80;;
5363;SDS011;2705;41.410;2.160;2023-02-01T03:09:01;12.27;;;7.40;;
5363;SDS011;2705;41.410;2.160;2023-02-01T03:11:32;11.70;;;7.57;;
5363;SDS011;2705;41.410;2.160;2023-02-01T03:14:16;8.87;;;6.80;;
5363;SDS011;2705;41.410;2.160;2023-02-01T03:16:49;15.37;;;6.90;;
5363;SDS011;2705;41.410;2.160;2023-02-01T03:19:21;9.80;;;6.73;;
5363;SDS011;2705;41.410;2.160;2023-02-01T03:21:52;9.40;;;5.83;;
5363;SDS011;2705;41.410;2.160;2023-02-01T03:24:23;8.77;;;6.80;;
5363;SDS011;2705;41.410;2.160;2023-02-01T03:27:02;11.90;;;6.53;;
5363;SDS011;2705;41.410;2.160;2023-02-01T03:29:34;9.50;;;7.20;;
5363;SDS011;2705;41.410;2.160;2023-02-01T03:32:05;11.00;;;6.97;;
5363;SDS011;2705;41.410;2.160;2023-02-01T03:34:36;8.87;;;6.07;;
5363;SDS011;2705;41.410;2.160;2023-02-01T03:37:08;7.90;;;5.70;;
5363;SDS011;2705;41.410;2.160;2023-02-01T03:39:39;10.67;;;6.77;;
5363;SDS011;2705;41.410;2.160;2023-02-01T03:42:10;9.77;;;7.00;;
5363;SDS011;2705;41.410;2.160;2023-02-01T03:44:43;16.70;;;7.27;;
5363;SDS011;2705;41.410;2.160;2023-02-01T03:47:15;12.77;;;7.00;;
5363;SDS011;2705;41.410;2.160;2023-02-01T03:49:52;11.33;;;7.30;;
5363;SDS011;2705;41.410;2.160;2023-02-01T03:52:25;9.77;;;7.47;;
5363;SDS011;2705;41.410;2.160;2023-02-01T03:54:54;9.77;;;6.97;;
5363;SDS011;2705;41.410;2.160;2023-02-01T03:57:25;10.50;;;6.97;;
5363;SDS011;2705;41.410;2.160;2023-02-01T04:00:04;11.70;;;7.50;;
5363;SDS011;2705;41.410;2.160;2023-02-01T04:02:39;13.60;;;7.70;;
5363;SDS011;2705;41.410;2.160;2023-02-01T04:05:08;10.43;;;6.77;;
5363;SDS011;2705;41.410;2.160;2023-02-01T04:07:47;10.33;;;7.50;;
5363;SDS011;2705;41.410;2.160;2023-02-01T04:10:16;10.20;;;7.27;;
5363;SDS011;2705;41.410;2.160;2023-02-01T04:12:46;13.83;;;7.17;;
5363;SDS011;2705;41.410;2.160;2023-02-01T04:15:15;11.63;;;6.60;;
5363;SDS011;2705;41.410;2.160;2023-02-01T04:17:44;8.67;;;6.27;;
5363;SDS011;2705;41.410;2.160;2023-02-01T04:20:14;11.87;;;7.37;;
5363;SDS011;2705;41.410;2.160;2023-02-01T04:22:43;11.73;;;7.37;;
5363;SDS011;2705;41.410;2.160;2023-02-01T04:25:14;8.23;;;6.53;;
5363;SDS011;2705;41.410;2.160;2023-02-01T04:27:45;13.77;;;6.83;;
5363;SDS011;2705;41.410;2.160;2023-02-01T04:30:15;9.60;;;7.43;;
5363;SDS011;2705;41.410;2.160;2023-02-01T04:32:45;9.63;;;7.20;;
5363;SDS011;2705;41.410;2.160;2023-02-01T04:35:14;15.30;;;7.40;;
5363;SDS011;2705;41.410;2.160;2023-02-01T04:37:44;13.60;;;7.40;;
5363;SDS011;2705;41.410;2.160;2023-02-01T04:40:15;9.57;;;6.77;;
5363;SDS011;2705;41.410;2.160;2023-02-01T04:42:44;13.10;;;7.53;;
5363;SDS011;2705;41.410;2.160;2023-02-01T04:45:14;14.47;;;8.40;;
5363;SDS011;2705;41.410;2.160;2023-02-01T04:47:43;9.50;;;6.07;;
5363;SDS011;2705;41.410;2.160;2023-02-01T04:50:13;10.70;;;7.93;;
5363;SDS011;2705;41.410;2.160;2023-02-01T04:52:42;9.87;;;7.37;;
5363;SDS011;2705;41.410;2.160;2023-02-01T04:55:12;12.00;;;7.30;;
5363;SDS011;2705;41.410;2.160;2023-02-01T04:57:43;14.43;;;7.50;;
5363;SDS011;2705;41.410;2.160;2023-02-01T05:00:13;10.73;;;7.13;;
5363;SDS011;2705;41.410;2.160;2023-02-01T05:02:42;9.53;;;7.00;;
5363;SDS011;2705;41.410;2.160;2023-02-01T05:05:11;12.33;;;7.43;;
5363;SDS011;2705;41.410;2.160;2023-02-01T05:07:41;15.77;;;7.70;;
5363;SDS011;2705;41.410;2.160;2023-02-01T05:10:10;14.50;;;7.97;;
5363;SDS011;2705;41.410;2.160;2023-02-01T05:12:39;10.23;;;7.47;;
5363;SDS011;2705;41.410;2.160;2023-02-01T05:15:27;10.60;;;7.30;;
5363;SDS011;2705;41.410;2.160;2023-02-01T05:17:57;9.87;;;6.90;;
5363;SDS011;2705;41.410;2.160;2023-02-01T05:20:26;10.90;;;6.47;;
5363;SDS011;2705;41.410;2.160;2023-02-01T05:22:55;8.30;;;6.33;;
5363;SDS011;2705;41.410;2.160;2023-02-01T05:25:25;10.70;;;5.93;;
5363;SDS011;2705;41.410;2.160;2023-02-01T05:27:54;13.50;;;7.27;;
5363;SDS011;2705;41.410;2.160;2023-02-01T05:30:23;10.17;;;7.40;;
5363;SDS011;2705;41.410;2.160;2023-02-01T05:32:54;10.93;;;7.53;;
5363;SDS011;2705;41.410;2.160;2023-02-01T05:35:23;11.43;;;7.10;;
5363;SDS011;2705;41.410;2.160;2023-02-01T05:37:52;10.23;;;7.30;;
5363;SDS011;2705;41.410;2.160;2023-02-01T05:40:22;11.73;;;7.43;;
5363;SDS011;2705;41.410;2.160;2023-02-01T05:42:52;12.13;;;6.97;;
5363;SDS011;2705;41.410;2.160;2023-02-01T05:45:21;9.80;;;7.00;;
5363;SDS011;2705;41.410;2.160;2023-02-01T05:47:50;10.40;;;6.73;;
5363;SDS011;2705;41.410;2.160;2023-02-01T05:50:21;11.07;;;7.40;;
5363;SDS011;2705;41.410;2.160;2023-02-01T05:52:56;10.77;;;7.00;;
5363;SDS011;2705;41.410;2.160;2023-02-01T05:55:25;10.50;;;7.40;;
5363;SDS011;2705;41.410;2.160;2023-02-01T05:57:55;13.17;;;8.03;;
5363;SDS011;2705;41.410;2.160;2023-02-01T06:00:24;10.23;;;6.93;;
5363;SDS011;2705;41.410;2.160;2023-02-01T06:02:53;10.67;;;7.77;;
5363;SDS011;2705;41.410;2.160;2023-02-01T06:05:24;12.20;;;7.77;;
5363;SDS011;2705;41.410;2.160;2023-02-01T06:07:54;11.83;;;7.10;;
5363;SDS011;2705;41.410;2.160;2023-02-01T06:10:23;9.80;;;6.97;;
5363;SDS011;2705;41.410;2.160;2023-02-01T06:12:52;9.53;;;6.43;;
5363;SDS011;2705;41.410;2.160;2023-02-01T06:15:22;9.50;;;6.60;;
5363;SDS011;2705;41.410;2.160;2023-02-01T06:17:51;11.27;;;7.60;;
5363;SDS011;2705;41.410;2.160;2023-02-01T06:20:21;11.63;;;7.63;;
5363;SDS011;2705;41.410;2.160;2023-02-01T06:22:52;12.03;;;7.93;;
5363;SDS011;2705;41.410;2.160;2023-02-01T06:25:21;16.13;;;6.80;;
5363;SDS011;2705;41.410;2.160;2023-02-01T06:27:51;9.40;;;6.83;;
5363;SDS011;2705;41.410;2.160;2023-02-01T06:30:20;11.10;;;8.13;;
5363;SDS011;2705;41.410;2.160;2023-02-01T06:32:50;14.00;;;7.10;;
5363;SDS011;2705;41.410;2.160;2023-02-01T06:35:21;10.30;;;7.10;;
5363;SDS011;2705;41.410;2.160;2023-02-01T06:37:52;9.90;;;7.07;;
5363;SDS011;2705;41.410;2.160;2023-02-01T06:40:22;10.80;;;7.57;;
5363;SDS011;2705;41.410;2.160;2023-02-01T06:42:52;8.70;;;6.40;;
5363;SDS011;2705;41.410;2.160;2023-02-01T06:45:21;10.80;;;7.40;;
5363;SDS011;2705;41.410;2.160;2023-02-01T06:47:50;10.87;;;7.63;;
5363;SDS011;2705;41.410;2.160;2023-02-01T06:50:20;12.00;;;7.70;;
5363;SDS011;2705;41.410;2.160;2023-02-01T06:52:51;11.13;;;6.67;;
5363;SDS011;2705;41.410;2.160;2023-02-01T06:55:21;19.40;;;7.90;;
5363;SDS011;2705;41.410;2.160;2023-02-01T06:57:52;10.43;;;6.87;;
5363;SDS011;2705;41.410;2.160;2023-02-01T07:00:22;15.67;;;7.63;;
5363;SDS011;2705;41.410;2.160;2023-02-01T07:02:52;11.40;;;7.37;;
5363;SDS011;2705;41.410;2.160;2023-02-01T07:05:21;9.10;;;6.57;;
5363;SDS011;2705;41.410;2.160;2023-02-01T07:07:52;14.83;;;7.43;;
5363;SDS011;2705;41.410;2.160;2023-02-01T07:10:22;11.93;;;8.73;;
5363;SDS011;2705;41.410;2.160;2023-02-01T07:12:51;13.10;;;7.23;;
5363;SDS011;2705;41.410;2.160;2023-02-01T07:15:20;11.23;;;7.30;;
5363;SDS011;2705;41.410;2.160;2023-02-01T07:17:51;11.40;;;6.80;;
5363;SDS011;2705;41.410;2.160;2023-02-01T07:20:23;12.23;;;8.10;;
5363;SDS011;2705;41.410;2.160;2023-02-01T07:22:55;14.30;;;7.90;;
5363;SDS011;2705;41.410;2.160;2023-02-01T07:25:25;11.80;;;6.90;;
5363;SDS011;2705;41.410;2.160;2023-02-01T07:27:54;12.27;;;8.00;;
5363;SDS011;2705;41.410;2.160;2023-02-01T07:30:23;13.33;;;7.70;;
5363;SDS011;2705;41.410;2.160;2023-02-01T07:32:53;14.67;;;7.87;;
5363;SDS011;2705;41.410;2.160;2023-02-01T07:35:22;11.30;;;8.13;;
5363;SDS011;2705;41.410;2.160;2023-02-01T07:37:51;10.37;;;7.53;;
5363;SDS011;2705;41.410;2.160;2023-02-01T07:40:22;12.90;;;7.10;;
5363;SDS011;2705;41.410;2.160;2023-02-01T07:42:55;11.73;;;7.70;;
5363;SDS011;2705;41.410;2.160;2023-02-01T07:45:25;19.73;;;8.63;;
5363;SDS011;2705;41.410;2.160;2023-02-01T07:47:54;17.50;;;7.90;;
5363;SDS011;2705;41.410;2.160;2023-02-01T07:50:23;15.90;;;8.03;;
5363;SDS011;2705;41.410;2.160;2023-02-01T07:52:52;19.93;;;8.73;;
5363;SDS011;2705;41.410;2.160;2023-02-01T07:55:23;15.40;;;9.00;;
5363;SDS011;2705;41.410;2.160;2023-02-01T07:57:56;23.87;;;9.50;;
5363;SDS011;2705;41.410;2.160;2023-02-01T08:00:26;53.87;;;12.13;;
5363;SDS011;2705;41.410;2.160;2023-02-01T08:03:13;19.53;;;9.43;;
5363;SDS011;2705;41.410;2.160;2023-02-01T08:05:43;19.00;;;8.47;;
5363;SDS011;2705;41.410;2.160;2023-02-01T08:08:12;18.97;;;9.80;;
5363;SDS011;2705;41.410;2.160;2023-02-01T08:10:43;15.00;;;7.23;;
5363;SDS011;2705;41.410;2.160;2023-02-01T08:13:12;20.13;;;9.30;;
5363;SDS011;2705;41.410;2.160;2023-02-01T08:15:42;23.83;;;8.33;;
5363;SDS011;2705;41.410;2.160;2023-02-01T08:18:11;19.23;;;8.40;;
5363;SDS011;2705;41.410;2.160;2023-02-01T08:20:43;11.70;;;7.30;;
5363;SDS011;2705;41.410;2.160;2023-02-01T08:23:12;16.50;;;8.37;;
5363;SDS011;2705;41.410;2.160;2023-02-01T08:25:43;15.10;;;8.73;;
5363;SDS011;2705;41.410;2.160;2023-02-01T08:28:13;14.40;;;8.20;;
5363;SDS011;2705;41.410;2.160;2023-02-01T08:30:42;12.50;;;8.63;;
5363;SDS011;2705;41.410;2.160;2023-02-01T08:33:12;23.20;;;9.10;;
5363;SDS011;2705;41.410;2.160;2023-02-01T08:35:41;11.27;;;8.00;;
5363;SDS011;2705;41.410;2.160;2023-02-01T08:38:11;13.60;;;8.57;;
5363;SDS011;2705;41.410;2.160;2023-02-01T08:40:40;12.93;;;8.33;;
5363;SDS011;2705;41.410;2.160;2023-02-01T08:43:10;11.37;;;8.60;;
5363;SDS011;2705;41.410;2.160;2023-02-01T08:45:41;15.00;;;8.40;;
5363;SDS011;2705;41.410;2.160;2023-02-01T08:48:11;12.00;;;7.93;;
5363;SDS011;2705;41.410;2.160;2023-02-01T08:50:40;11.13;;;7.63;;
5363;SDS011;2705;41.410;2.160;2023-02-01T08:53:09;12.20;;;8.33;;
5363;SDS011;2705;41.410;2.160;2023-02-01T08:55:41;14.40;;;8.30;;
5363;SDS011;2705;41.410;2.160;2023-02-01T08:58:11;12.70;;;8.10;;
5363;SDS011;2705;41.410;2.160;2023-02-01T09:00:41;13.60;;;7.90;;
5363;SDS011;2705;41.410;2.160;2023-02-01T09:03:11;15.03;;;9.20;;
5363;SDS011;2705;41.410;2.160;2023-02-01T09:05:41;10.60;;;7.27;;
5363;SDS011;2705;41.410;2.160;2023-02-01T09:08:16;14.03;;;7.17;;
5363;SDS011;2705;41.410;2.160;2023-02-01T09:10:47;10.70;;;7.90;;
5363;SDS011;2705;41.410;2.160;2023-02-01T09:13:17;9.90;;;6.53;;
5363;SDS011;2705;41.410;2.160;2023-02-01T09:15:46;11.07;;;6.30;;
5363;SDS011;2705;41.410;2.160;2023-02-01T09:18:18;11.00;;;6.23;;
5363;SDS011;2705;41.410;2.160;2023-02-01T09:20:48;17.03;;;7.90;;
5363;SDS011;2705;41.410;2.160;2023-02-01T09:23:17;15.23;;;7.37;;
5363;SDS011;2705;41.410;2.160;2023-02-01T09:25:48;19.70;;;11.43;;
5363;SDS011;2705;41.410;2.160;2023-02-01T09:28:19;15.77;;;7.13;;
5363;SDS011;2705;41.410;2.160;2023-02-01T09:30:49;11.50;;;7.00;;
5363;SDS011;2705;41.410;2.160;2023-02-01T09:33:18;13.80;;;7.70;;
5363;SDS011;2705;41.410;2.160;2023-02-01T09:35:48;17.40;;;6.30;;
5363;SDS011;2705;41.410;2.160;2023-02-01T09:38:17;13.37;;;7.13;;
5363;SDS011;2705;41.410;2.160;2023-02-01T09:40:46;13.33;;;6.93;;
5363;SDS011;2705;41.410;2.160;2023-02-01T09:43:23;14.83;;;6.90;;
5363;SDS011;2705;41.410;2.160;2023-02-01T09:45:56;9.50;;;6.50;;
5363;SDS011;2705;41.410;2.160;2023-02-01T09:48:29;19.17;;;7.70;;
5363;SDS011;2705;41.410;2.160;2023-02-01T09:51:00;13.70;;;7.33;;
5363;SDS011;2705;41.410;2.160;2023-02-01T09:53:32;14.17;;;6.93;;
5363;SDS011;2705;41.410;2.160;2023-02-01T09:56:02;13.03;;;7.30;;
5363;SDS011;2705;41.410;2.160;2023-02-01T09:58:36;14.70;;;7.80;;
5363;SDS011;2705;41.410;2.160;2023-02-01T10:01:09;10.60;;;7.10;;
5363;SDS011;2705;41.410;2.160;2023-02-01T10:03:43;10.73;;;7.10;;
5363;SDS011;2705;41.410;2.160;2023-02-01T10:06:20;12.00;;;6.20;;
5363;SDS011;2705;41.410;2.160;2023-02-01T10:09:06;8.63;;;6.23;;
5363;SDS011;2705;41.410;2.160;2023-02-01T10:11:40;12.73;;;6.60;;
5363;SDS011;2705;41.410;2.160;2023-02-01T10:14:25;9.53;;;5.90;;
5363;SDS011;2705;41.410;2.160;2023-02-01T10:17:01;8.57;;;6.13;;
5363;SDS011;2705;41.410;2.160;2023-02-01T10:19:35;9.70;;;6.47;;
5363;SDS011;2705;41.410;2.160;2023-02-01T10:22:09;14.00;;;7.70;;
5363;SDS011;2705;41.410;2.160;2023-02-01T10:24:39;9.10;;;5.20;;
5363;SDS011;2705;41.410;2.160;2023-02-01T10:27:14;8.80;;;6.20;;
5363;SDS011;2705;41.410;2.160;2023-02-01T10:29:47;8.70;;;5.13;;
5363;SDS011;2705;41.410;2.160;2023-02-01T10:32:20;8.10;;;4.10;;
5363;SDS011;2705;41.410;2.160;2023-02-01T10:34:51;8.90;;;4.67;;
5363;SDS011;2705;41.410;2.160;2023-02-01T10:37:23;6.53;;;4.90;;
5363;SDS011;2705;41.410;2.160;2023-02-01T10:39:54;10.90;;;4.60;;
5363;SDS011;2705;41.410;2.160;2023-02-01T10:42:25;7.40;;;4.37;;
5363;SDS011;2705;41.410;2.160;2023-02-01T10:44:57;8.47;;;5.50;;
5363;SDS011;2705;41.410;2.160;2023-02-01T10:47:28;6.03;;;4.60;;
5363;SDS011;2705;41.410;2.160;2023-02-01T10:50:00;5.70;;;4.40;;
5363;SDS011;2705;41.410;2.160;2023-02-01T10:52:34;7.67;;;4.60;;
5363;SDS011;2705;41.410;2.160;2023-02-01T10:55:25;5.53;;;4.03;;
5363;SDS011;2705;41.410;2.160;2023-02-01T10:57:56;5.43;;;3.73;;
5363;SDS011;2705;41.410;2.160;2023-02-01T11:00:27;4.93;;;3.63;;
5363;SDS011;2705;41.410;2.160;2023-02-01T11:02:57;4.23;;;3.10;;
5363;SDS011;2705;41.410;2.160;2023-02-01T11:05:26;7.50;;;3.80;;
5363;SDS011;2705;41.410;2.160;2023-02-01T11:07:56;6.57;;;4.40;;
5363;SDS011;2705;41.410;2.160;2023-02-01T11:10:34;7.07;;;5.07;;
5363;SDS011;2705;41.410;2.160;2023-02-01T11:13:04;5.93;;;4.50;;
5363;SDS011;2705;41.410;2.160;2023-02-01T11:15:35;7.73;;;4.50;;
5363;SDS011;2705;41.410;2.160;2023-02-01T11:18:12;3.90;;;3.50;;
5363;SDS011;2705;41.410;2.160;2023-02-01T11:20:43;6.87;;;4.97;;
5363;SDS011;2705;41.410;2.160;2023-02-01T11:23:16;8.60;;;5.30;;
5363;SDS011;2705;41.410;2.160;2023-02-01T11:25:47;8.80;;;5.73;;
5363;SDS011;2705;41.410;2.160;2023-02-01T11:28:17;9.63;;;5.90;;
5363;SDS011;2705;41.410;2.160;2023-02-01T11:30:48;8.67;;;4.73;;
5363;SDS011;2705;41.410;2.160;2023-02-01T11:33:24;8.47;;;5.60;;
5363;SDS011;2705;41.410;2.160;2023-02-01T11:35:56;8.93;;;4.93;;
5363;SDS011;2705;41.410;2.160;2023-02-01T11:38:27;6.70;;;5.40;;
5363;SDS011;2705;41.410;2.160;2023-02-01T11:41:10;7.37;;;5.90;;
5363;SDS011;2705;41.410;2.160;2023-02-01T11:43:50;9.53;;;5.83;;
5363;SDS011;2705;41.410;2.160;2023-02-01T11:46:22;12.80;;;5.60;;
5363;SDS011;2705;41.410;2.160;2023-02-01T11:48:53;8.07;;;5.57;;
5363;SDS011;2705;41.410;2.160;2023-02-01T11:51:34;10.57;;;6.67;;
5363;SDS011;2705;41.410;2.160;2023-02-01T11:54:17;16.00;;;6.60;;
5363;SDS011;2705;41.410;2.160;2023-02-01T11:56:55;9.63;;;6.20;;
5363;SDS011;2705;41.410;2.160;2023-02-01T11:59:30;39.57;;;8.13;;
5363;SDS011;2705;41.410;2.160;2023-02-01T12:02:15;14.77;;;6.63;;
5363;SDS011;2705;41.410;2.160;2023-02-01T12:04:58;38.83;;;9.10;;
5363;SDS011;2705;41.410;2.160;2023-02-01T12:07:34;9.27;;;5.37;;
5363;SDS011;2705;41.410;2.160;2023-02-01T12:10:15;8.67;;;5.30;;
5363;SDS011;2705;41.410;2.160;2023-02-01T12:12:48;20.87;;;6.90;;
5363;SDS011;2705;41.410;2.160;2023-02-01T12:15:24;10.70;;;5.57;;
5363;SDS011;2705;41.410;2.160;2023-02-01T12:18:03;8.10;;;5.20;;
5363;SDS011;2705;41.410;2.160;2023-02-01T12:20:53;4.70;;;3.93;;
5363;SDS011;2705;41.410;2.160;2023-02-01T12:23:30;5.30;;;3.67;;
5363;SDS011;2705;41.410;2.160;2023-02-01T12:26:07;14.20;;;4.40;;
5363;SDS011;2705;41.410;2.160;2023-02-01T12:28:42;5.93;;;3.57;;
5363;SDS011;2705;41.410;2.160;2023-02-01T12:31:22;4.63;;;3.03;;
5363;SDS011;2705;41.410;2.160;2023-02-01T12:34:00;3.97;;;3.57;;
5363;SDS011;2705;41.410;2.160;2023-02-01T12:36:37;4.60;;;3.73;;
5363;SDS011;2705;41.410;2.160;2023-02-01T12:39:12;5.17;;;3.70;;
5363;SDS011;2705;41.410;2.160;2023-02-01T12:41:48;7.27;;;4.43;;
5363;SDS011;2705;41.410;2.160;2023-02-01T12:44:24;8.40;;;4.60;;
5363;SDS011;2705;41.410;2.160;2023-02-01T12:46:55;8.53;;;4.97;;
5363;SDS011;2705;41.410;2.160;2023-02-01T12:49:30;17.57;;;6.47;;
5363;SDS011;2705;41.410;2.160;2023-02-01T12:52:04;9.43;;;4.67;;
5363;SDS011;2705;41.410;2.160;2023-02-01T12:54:34;12.53;;;6.70;;
5363;SDS011;2705;41.410;2.160;2023-02-01T12:57:05;5.97;;;4.63;;
5363;SDS011;2705;41.410;2.160;2023-02-01T12:59:36;6.27;;;3.60;;
5363;SDS011;2705;41.410;2.160;2023-02-01T13:02:11;7.23;;;4.67;;
5363;SDS011;2705;41.410;2.160;2023-02-01T13:04:44;9.40;;;4.10;;
5363;SDS011;2705;41.410;2.160;2023-02-01T13:07:18;6.60;;;4.00;;
5363;SDS011;2705;41.410;2.160;2023-02-01T13:09:50;8.60;;;4.60;;
5363;SDS011;2705;41.410;2.160;2023-02-01T13:12:21;5.57;;;4.00;;
5363;SDS011;2705;41.410;2.160;2023-02-01T13:14:53;5.60;;;4.20;;
5363;SDS011;2705;41.410;2.160;2023-02-01T13:17:25;5.43;;;4.10;;
5363;SDS011;2705;41.410;2.160;2023-02-01T13:19:57;5.90;;;4.33;;
5363;SDS011;2705;41.410;2.160;2023-02-01T13:22:30;8.10;;;5.37;;
5363;SDS011;2705;41.410;2.160;2023-02-01T13:25:00;11.57;;;5.00;;
5363;SDS011;2705;41.410;2.160;2023-02-01T13:27:31;11.80;;;4.90;;
5363;SDS011;2705;41.410;2.160;2023-02-01T13:30:02;6.17;;;5.00;;
5363;SDS011;2705;41.410;2.160;2023-02-01T13:32:38;20.30;;;5.80;;
5363;SDS011;2705;41.410;2.160;2023-02-01T13:35:38;6.93;;;4.70;;
5363;SDS011;2705;41.410;2.160;2023-02-01T13:41:02;7.03;;;4.70;;
5363;SDS011;2705;41.410;2.160;2023-02-01T13:43:38;5.97;;;4.83;;
5363;SDS011;2705;41.410;2.160;2023-02-01T13:46:09;7.30;;;4.90;;
5363;SDS011;2705;41.410;2.160;2023-02-01T13:48:45;7.07;;;4.70;;
5363;SDS011;2705;41.410;2.160;2023-02-01T13:51:32;9.83;;;5.10;;
5363;SDS011;2705;41.410;2.160;2023-02-01T13:54:02;12.27;;;6.33;;
5363;SDS011;2705;41.410;2.160;2023-02-01T13:56:39;10.80;;;5.20;;
5363;SDS011;2705;41.410;2.160;2023-02-01T14:01:56;7.30;;;5.03;;
5363;SDS011;2705;41.410;2.160;2023-02-01T14:04:46;10.33;;;5.93;;
5363;SDS011;2705;41.410;2.160;2023-02-01T14:07:21;10.00;;;5.63;;
5363;SDS011;2705;41.410;2.160;2023-02-01T14:09:51;8.17;;;4.90;;
5363;SDS011;2705;41.410;2.160;2023-02-01T14:15:19;10.80;;;5.27;;
5363;SDS011;2705;41.410;2.160;2023-02-01T14:17:50;7.63;;;5.57;;
5363;SDS011;2705;41.410;2.160;2023-02-01T14:23:24;7.50;;;5.13;;
5363;SDS011;2705;41.410;2.160;2023-02-01T14:26:02;8.60;;;5.30;;
5363;SDS011;2705;41.410;2.160;2023-02-01T14:28:32;6.90;;;5.90;;
5363;SDS011;2705;41.410;2.160;2023-02-01T14:31:13;14.53;;;9.67;;
5363;SDS011;2705;41.410;2.160;2023-02-01T14:33:43;15.67;;;9.20;;
5363;SDS011;2705;41.410;2.160;2023-02-01T14:36:13;17.93;;;11.00;;
5363;SDS011;2705;41.410;2.160;2023-02-01T14:38:49;20.97;;;9.47;;
5363;SDS011;2705;41.410;2.160;2023-02-01T14:41:24;20.97;;;9.60;;
5363;SDS011;2705;41.410;2.160;2023-02-01T14:44:14;13.40;;;9.47;;
5363;SDS011;2705;41.410;2.160;2023-02-01T14:47:03;14.90;;;9.30;;
5363;SDS011;2705;41.410;2.160;2023-02-01T14:49:33;17.77;;;9.53;;
5363;SDS011;2705;41.410;2.160;2023-02-01T14:52:05;15.13;;;9.60;;
5363;SDS011;2705;41.410;2.160;2023-02-01T14:54:36;16.93;;;8.40;;
5363;SDS011;2705;41.410;2.160;2023-02-01T14:57:09;11.80;;;8.83;;
5363;SDS011;2705;41.410;2.160;2023-02-01T14:59:42;14.87;;;8.80;;
5363;SDS011;2705;41.410;2.160;2023-02-01T15:02:17;15.17;;;9.27;;
5363;SDS011;2705;41.410;2.160;2023-02-01T15:04:50;19.40;;;10.63;;
5363;SDS011;2705;41.410;2.160;2023-02-01T15:07:22;11.00;;;8.10;;
5363;SDS011;2705;41.410;2.160;2023-02-01T15:09:54;10.80;;;8.10;;
5363;SDS011;2705;41.410;2.160;2023-02-01T15:12:26;15.63;;;8.77;;
5363;SDS011;2705;41.410;2.160;2023-02-01T15:15:12;14.53;;;8.60;;
5363;SDS011;2705;41.410;2.160;2023-02-01T15:17:48;11.43;;;7.83;;
5363;SDS011;2705;41.410;2.160;2023-02-01T15:20:18;12.10;;;9.10;;
5363;SDS011;2705;41.410;2.160;2023-02-01T15:22:53;13.00;;;8.50;;
5363;SDS011;2705;41.410;2.160;2023-02-01T15:25:25;17.50;;;8.90;;
5363;SDS011;2705;41.410;2.160;2023-02-01T15:27:55;13.20;;;9.33;;
5363;SDS011;2705;41.410;2.160;2023-02-01T15:30:25;21.23;;;8.00;;
5363;SDS011;2705;41.410;2.160;2023-02-01T15:33:03;13.43;;;8.40;;
5363;SDS011;2705;41.410;2.160;2023-02-01T15:35:36;16.90;;;8.10;;
5363;SDS011;2705;41.410;2.160;2023-02-01T15:38:21;14.03;;;8.17;;
5363;SDS011;2705;41.410;2.160;2023-02-01T15:40:56;17.63;;;9.43;;
5363;SDS011;2705;41.410;2.160;2023-02-01T15:43:25;20.67;;;8.90;;
5363;SDS011;2705;41.410;2.160;2023-02-01T15:45:55;11.03;;;7.50;;
5363;SDS011;2705;41.410;2.160;2023-02-01T15:48:26;13.80;;;7.93;;
5363;SDS011;2705;41.410;2.160;2023-02-01T15:50:55;11.73;;;6.90;;
5363;SDS011;2705;41.410;2.160;2023-02-01T15:53:25;12.73;;;7.93;;
5363;SDS011;2705;41.410;2.160;2023-02-01T15:56:00;13.83;;;7.73;;
5363;SDS011;2705;41.410;2.160;2023-02-01T15:58:30;14.23;;;7.60;;